13分钟前
罗盘
风向 的 风向 的 风向 到 风向 310° Buttonville Municipal Airport 15/33
风向 到 风: 17 千吨, 阵阵 27 千吨, 5 beaufort
0 500 1.500 3.000 5.000 8.000 10.000
BKN 1.700 ft
OVC 2.400 ft
METAR CYTZ 171934Z AUTO 31017G27KT 290V360 5SM -SN BKN017 OVC024 M03/M06 A2928 RMK SLP920

METAR定义 | 嵌入

24小时趋势

航班类别VFRLIFR
温度0 °C-4 °C
风速20 千吨0 千吨
能见度14 公里0 米

更多历史数据

下载我们的安卓应用程序

从你的主屏幕上轻松地访问你的航空天气。
只需一次付费,您就可以获得无广告的体验。

您会帮助我们保持Metar-Taf.com正常运行吗?
您的贡献有助于网站的进一步开发并支付费用。

没有更多广告

您是捐款5美元还是更多?然后,我们将永远不会再向您展示广告,这是我们永恒的感谢!
捐赠前先登录

METAR Buttonville Municipal Airport

Buttonville Municipal Airport是Toronto,加拿大中的中型机场。 机场有{a,plural,=1{一条跑道} other{#跑道}}: 3/21 和 15/33

Buttonville Municipal Airport最近未发布观察结果。相反,我们向您显示26 km的报告比利·畢曉普多倫多市機場。 该报告是针对2022年1月17日 14:34, 当地时间进行的。

机场观察

风来自北西 (310°)方向,速度为17 千吨。 已测量27 千吨的阵风。 风向在西北西 (290°)和北 (360°)之间变化。

可见度为8,0 公里。

有碎云在1.700 ft的高度 和 乌云密布在2.400 ft的高度。 破损或更高的上限为1.700 ft。

当前天气为光 雪。 温度为-3 °C,阵风为-13 °C。 露点为-6 °C,相对湿度为80%。 海平面上的气压为992 压力 (QNH)。

评论

  • 海平面压力为992,0 压力 (SLP920)

白天

今天,太阳从07:47升起,在17:08降落。 这适用于Buttonville Municipal Airport,世界夏令时可能有所不同。 当地时间与世界标准时间之间的时差为-5 小时。 当前,没有夏令时有效。

公司介绍

在这个机场,你可以找到飞行学校。 本场上唯一已知的公司是Toronto Airways。

体会

到Vliegles.nl去找飞行课程,跳伞和其他飞行体验。 浏览页面,了解Buttonville Municipal Airport附近所有可用的活动。 你也可以使用搜索功能来寻找你所在地附近的特定飞行课程、跳伞或其他飞行体验。

您是否要在网站上Buttonville Municipal Airport飞行的天气? 阅读更多   自由!